Time;durP1;ratioP1;P1;durP2;ratioP2;P2;SDS_P1;SDS_P2;PMS_P1;PMS_P2;Temp;Humidity;BMP_temperature;BMP_pressure;BME280_temperature;BME280_humidity;BME280_pressure;Samples;Min_cycle;Max_cycle;Signal;HPM_P1;HPM_P2
2022/07/16 00:01:22;;;;;;;8.43;7.18;;;;;;;;;;5045697;28;20049;-66
2022/07/16 00:01:48;;;;;;;7.80;7.07;;;;;;;;;;5044363;28;20514;-66
2022/07/16 00:04:13;;;;;;;10.48;6.80;;;;;;;;;;5042672;28;20037;-66
2022/07/16 00:06:39;;;;;;;8.10;7.00;;;;;;;;;;5042557;28;20171;-66
2022/07/16 00:09:05;;;;;;;8.00;6.90;;;;;;;;;;5045447;28;20033;-66
2022/07/16 00:11:30;;;;;;;7.40;6.75;;;;;;;;;;5044319;28;20037;-65
2022/07/16 00:13:56;;;;;;;10.20;7.15;;;;;;;;;;5043745;28;20032;-65
2022/07/16 00:16:22;;;;;;;8.85;7.57;;;;;;;;;;5045171;28;20065;-65
2022/07/16 00:21:31;;;;;;;9.57;7.90;;;;;;;;;;5043662;28;20041;-66
2022/07/16 00:23:57;;;;;;;11.77;9.07;;;;;;;;;;5045193;28;20436;-66
2022/07/16 00:26:23;;;;;;;14.13;9.82;;;;;;;;;;5043624;28;20395;-67
2022/07/16 00:28:48;;;;;;;10.57;8.98;;;;;;;;;;5042506;28;20123;-66
2022/07/16 00:31:14;;;;;;;9.52;8.07;;;;;;;;;;5045098;28;20051;-66
2022/07/16 00:33:40;;;;;;;10.38;8.20;;;;;;;;;;5045862;28;20033;-63
2022/07/16 00:36:06;;;;;;;9.57;7.82;;;;;;;;;;5042856;28;20653;-66
2022/07/16 00:38:32;;;;;;;8.40;7.60;;;;;;;;;;5045407;28;20025;-64
2022/07/16 00:40:58;;;;;;;8.45;7.75;;;;;;;;;;5037975;28;20519;-64
2022/07/16 00:43:24;;;;;;;9.63;7.78;;;;;;;;;;5041522;28;20036;-64
2022/07/16 00:45:49;;;;;;;9.20;8.30;;;;;;;;;;5043733;28;20048;-64
2022/07/16 00:48:15;;;;;;;9.38;8.00;;;;;;;;;;5045264;28;20037;-64
2022/07/16 00:50:41;;;;;;;8.55;7.63;;;;;;;;;;5043408;28;20647;-65
2022/07/16 00:53:09;;;;;;;8.70;7.90;;;;;;;;;;5042143;28;20069;-66
2022/07/16 00:55:35;;;;;;;9.27;7.90;;;;;;;;;;5046411;28;20043;-66
2022/07/16 00:58:00;;;;;;;13.38;7.50;;;;;;;;;;5045177;28;20040;-65
2022/07/16 01:00:26;;;;;;;7.95;7.25;;;;;;;;;;5041833;28;20116;-66
2022/07/16 01:02:52;;;;;;;9.45;7.50;;;;;;;;;;5039585;28;20115;-66
2022/07/16 01:05:18;;;;;;;9.30;7.60;;;;;;;;;;5042032;28;20079;-66
2022/07/16 01:07:44;;;;;;;9.65;7.57;;;;;;;;;;5040813;28;20152;-66
2022/07/16 01:10:11;;;;;;;11.15;7.43;;;;;;;;;;5044045;28;20029;-66
2022/07/16 01:12:38;;;;;;;9.05;7.65;;;;;;;;;;5039843;28;20261;-66
2022/07/16 01:15:04;;;;;;;8.57;7.78;;;;;;;;;;5042121;28;20543;-66
2022/07/16 01:17:30;;;;;;;8.77;7.50;;;;;;;;;;5040506;28;20037;-66
2022/07/16 01:19:55;;;;;;;7.97;7.00;;;;;;;;;;5040477;28;20043;-66
2022/07/16 01:22:24;;;;;;;8.15;7.40;;;;;;;;;;5042191;28;20036;-66
2022/07/16 01:24:50;;;;;;;7.90;7.30;;;;;;;;;;5042732;28;20192;-66
2022/07/16 01:27:17;;;;;;;12.43;7.70;;;;;;;;;;5037917;28;20041;-66
2022/07/16 01:29:43;;;;;;;8.75;7.72;;;;;;;;;;5042227;28;20028;-66
2022/07/16 01:32:09;;;;;;;8.18;7.43;;;;;;;;;;5044543;28;20090;-66
2022/07/16 01:34:35;;;;;;;9.45;8.63;;;;;;;;;;5043340;28;20033;-65
2022/07/16 01:37:05;;;;;;;9.68;8.50;;;;;;;;;;5045413;28;20498;-65
2022/07/16 01:39:34;;;;;;;9.07;8.20;;;;;;;;;;5041455;28;20558;-66
2022/07/16 01:42:03;;;;;;;10.77;8.40;;;;;;;;;;5042295;28;20036;-66
2022/07/16 01:44:31;;;;;;;8.52;7.72;;;;;;;;;;5041597;28;20488;-65
2022/07/16 01:46:58;;;;;;;9.00;7.75;;;;;;;;;;5044597;28;20076;-66
2022/07/16 01:49:25;;;;;;;8.32;7.45;;;;;;;;;;5037586;28;20037;-65
2022/07/16 01:51:50;;;;;;;8.52;7.63;;;;;;;;;;5044998;28;20488;-64
2022/07/16 01:54:17;;;;;;;8.00;7.30;;;;;;;;;;5044337;28;20029;-66
2022/07/16 01:56:42;;;;;;;9.75;8.00;;;;;;;;;;5045386;28;20037;-67
2022/07/16 01:59:09;;;;;;;7.57;6.93;;;;;;;;;;5043142;28;20083;-66
2022/07/16 02:01:34;;;;;;;8.88;7.97;;;;;;;;;;5045501;28;20037;-66
2022/07/16 02:04:00;;;;;;;10.15;7.85;;;;;;;;;;5038005;28;20466;-66
2022/07/16 02:06:26;;;;;;;9.15;8.18;;;;;;;;;;5041431;28;20065;-65
2022/07/16 02:08:52;;;;;;;8.48;7.63;;;;;;;;;;5041890;28;20115;-66
2022/07/16 02:11:17;;;;;;;9.95;8.10;;;;;;;;;;5044008;28;20040;-65
2022/07/16 02:13:43;;;;;;;10.18;8.23;;;;;;;;;;5028551;28;20431;-66
2022/07/16 02:16:10;;;;;;;8.95;8.10;;;;;;;;;;5040531;28;20037;-69
2022/07/16 02:18:35;;;;;;;13.80;8.40;;;;;;;;;;5042906;28;20033;-65
2022/07/16 02:21:01;;;;;;;9.70;8.43;;;;;;;;;;5041638;28;20041;-65
2022/07/16 02:23:27;;;;;;;9.52;8.48;;;;;;;;;;5040044;28;20029;-65
2022/07/16 02:25:53;;;;;;;10.27;8.20;;;;;;;;;;5040203;28;20382;-66
2022/07/16 02:28:18;;;;;;;11.50;8.20;;;;;;;;;;5043802;28;20039;-66
2022/07/16 02:30:47;;;;;;;8.73;7.97;;;;;;;;;;5041275;28;20041;-63
2022/07/16 02:33:15;;;;;;;9.82;8.25;;;;;;;;;;5046266;28;20020;-64
2022/07/16 02:35:41;;;;;;;9.15;8.35;;;;;;;;;;5045673;28;20064;-64
2022/07/16 02:38:08;;;;;;;9.65;8.73;;;;;;;;;;5046120;28;20404;-64
2022/07/16 02:40:35;;;;;;;9.00;8.20;;;;;;;;;;5046296;28;20036;-66
2022/07/16 02:43:03;;;;;;;9.93;8.85;;;;;;;;;;5044107;28;20037;-64
2022/07/16 02:45:28;;;;;;;9.23;8.43;;;;;;;;;;5045848;28;20064;-66
2022/07/16 02:47:54;;;;;;;13.23;8.80;;;;;;;;;;5045827;28;20387;-66
2022/07/16 02:50:20;;;;;;;11.50;9.18;;;;;;;;;;5041972;28;20029;-66
2022/07/16 02:52:45;;;;;;;9.32;8.50;;;;;;;;;;5048151;28;20025;-66
2022/07/16 02:55:11;;;;;;;10.10;9.10;;;;;;;;;;5044596;28;20060;-65
2022/07/16 02:57:38;;;;;;;11.93;8.65;;;;;;;;;;5044865;28;20029;-66
2022/07/16 03:00:09;;;;;;;11.93;9.10;;;;;;;;;;5047964;28;20036;-66
2022/07/16 03:02:34;;;;;;;10.52;9.32;;;;;;;;;;5045353;28;20036;-66
2022/07/16 03:05:01;;;;;;;10.40;8.88;;;;;;;;;;5046397;28;20040;-65
2022/07/16 03:07:27;;;;;;;13.45;9.50;;;;;;;;;;5045060;28;20033;-64
2022/07/16 03:09:53;;;;;;;11.10;8.73;;;;;;;;;;5048232;28;20532;-65
2022/07/16 03:12:18;;;;;;;10.20;9.02;;;;;;;;;;5048331;28;20108;-65
2022/07/16 03:14:45;;;;;;;10.30;9.10;;;;;;;;;;5045814;28;20123;-65
2022/07/16 03:17:11;;;;;;;10.20;9.20;;;;;;;;;;5041813;28;20029;-65
2022/07/16 03:19:37;;;;;;;11.23;9.13;;;;;;;;;;5049714;28;20082;-65
2022/07/16 03:22:03;;;;;;;9.98;8.98;;;;;;;;;;5046600;28;20045;-65
2022/07/16 03:24:29;;;;;;;13.10;9.25;;;;;;;;;;5045999;28;20029;-65
2022/07/16 03:26:55;;;;;;;14.18;9.73;;;;;;;;;;5042052;28;20120;-64
2022/07/16 03:29:20;;;;;;;11.60;8.77;;;;;;;;;;5046571;28;20116;-64
2022/07/16 03:31:46;;;;;;;10.85;9.40;;;;;;;;;;5042822;28;20032;-64
2022/07/16 03:34:11;;;;;;;10.60;9.60;;;;;;;;;;5044909;28;20040;-65
2022/07/16 03:36:37;;;;;;;10.38;9.35;;;;;;;;;;5046571;28;20083;-65
2022/07/16 03:41:29;;;;;;;11.70;10.38;;;;;;;;;;5046267;28;20075;-64
2022/07/16 03:43:55;;;;;;;10.88;9.88;;;;;;;;;;5043786;28;20136;-64
2022/07/16 03:46:20;;;;;;;11.40;10.30;;;;;;;;;;5046757;28;20115;-65
2022/07/16 03:48:46;;;;;;;10.70;9.80;;;;;;;;;;5042812;28;20116;-64
2022/07/16 03:51:12;;;;;;;10.68;9.68;;;;;;;;;;5044268;28;20028;-64
2022/07/16 03:53:37;;;;;;;10.35;9.25;;;;;;;;;;5043168;28;20047;-65
2022/07/16 03:56:04;;;;;;;10.50;9.50;;;;;;;;;;5047921;28;20025;-65
2022/07/16 03:58:30;;;;;;;10.38;9.32;;;;;;;;;;5043719;28;20786;-64
2022/07/16 04:00:56;;;;;;;10.07;9.07;;;;;;;;;;5045883;28;20040;-64
2022/07/16 04:03:23;;;;;;;10.15;9.25;;;;;;;;;;5042484;28;20029;-65
2022/07/16 04:05:50;;;;;;;10.80;9.55;;;;;;;;;;5048335;28;20150;-64
2022/07/16 04:08:16;;;;;;;9.93;8.40;;;;;;;;;;5041068;28;20036;-64
2022/07/16 04:10:42;;;;;;;9.98;9.07;;;;;;;;;;5045517;28;20095;-64
2022/07/16 04:13:08;;;;;;;10.10;9.10;;;;;;;;;;5041184;28;20048;-63
2022/07/16 04:15:33;;;;;;;9.93;9.10;;;;;;;;;;5042414;28;20104;-64
2022/07/16 04:17:59;;;;;;;10.15;9.00;;;;;;;;;;5044333;28;20037;-64
2022/07/16 04:20:24;;;;;;;9.95;9.00;;;;;;;;;;5042822;28;20064;-64
2022/07/16 04:22:50;;;;;;;9.15;8.35;;;;;;;;;;5037302;28;20036;-64
2022/07/16 04:25:16;;;;;;;9.55;8.52;;;;;;;;;;5044008;28;20552;-64
2022/07/16 04:27:42;;;;;;;9.23;8.32;;;;;;;;;;5040981;28;20055;-64
2022/07/16 04:30:09;;;;;;;9.20;8.40;;;;;;;;;;5038550;28;20033;-64
2022/07/16 04:32:36;;;;;;;9.32;8.43;;;;;;;;;;5044161;28;20516;-64
2022/07/16 04:35:03;;;;;;;9.02;8.23;;;;;;;;;;5042978;28;20503;-63
2022/07/16 04:37:28;;;;;;;9.23;8.32;;;;;;;;;;5041179;28;20035;-64
2022/07/16 04:39:54;;;;;;;10.60;7.68;;;;;;;;;;5044045;28;20040;-64
2022/07/16 04:42:20;;;;;;;9.93;8.40;;;;;;;;;;5046890;28;20047;-66
2022/07/16 04:44:46;;;;;;;8.10;7.38;;;;;;;;;;5043002;28;20091;-65
2022/07/16 04:47:11;;;;;;;8.32;7.53;;;;;;;;;;5043240;28;20493;-64
2022/07/16 04:49:37;;;;;;;8.85;7.90;;;;;;;;;;5043454;28;20033;-65
2022/07/16 04:52:04;;;;;;;8.80;8.00;;;;;;;;;;5044109;28;20041;-66
2022/07/16 04:54:30;;;;;;;9.60;8.65;;;;;;;;;;5041281;28;20075;-66
2022/07/16 04:56:55;;;;;;;9.27;8.35;;;;;;;;;;5044095;28;20443;-65
2022/07/16 04:59:21;;;;;;;9.15;7.78;;;;;;;;;;5043527;28;20056;-65
2022/07/16 05:01:47;;;;;;;9.55;8.20;;;;;;;;;;5044488;28;20483;-65
2022/07/16 05:04:12;;;;;;;9.80;8.02;;;;;;;;;;5042230;28;20037;-65
2022/07/16 05:06:38;;;;;;;11.38;8.38;;;;;;;;;;5045128;28;20508;-65
2022/07/16 05:09:04;;;;;;;11.85;8.18;;;;;;;;;;5044579;28;20040;-65
2022/07/16 05:11:30;;;;;;;9.18;8.27;;;;;;;;;;5042205;28;20420;-65
2022/07/16 05:13:56;;;;;;;8.85;8.05;;;;;;;;;;5036346;28;20032;-65
2022/07/16 05:16:22;;;;;;;10.32;8.63;;;;;;;;;;5044682;28;20461;-65
2022/07/16 05:18:48;;;;;;;9.50;8.02;;;;;;;;;;5041565;28;20029;-65
2022/07/16 05:21:14;;;;;;;8.88;7.82;;;;;;;;;;5041797;28;20036;-66
2022/07/16 05:23:40;;;;;;;8.25;7.45;;;;;;;;;;5040876;28;20037;-65
2022/07/16 05:26:06;;;;;;;10.15;7.57;;;;;;;;;;5045488;28;20033;-65
2022/07/16 05:28:32;;;;;;;10.50;8.00;;;;;;;;;;5043660;28;20055;-65
2022/07/16 05:30:57;;;;;;;10.52;8.02;;;;;;;;;;5041027;28;20040;-65
2022/07/16 05:33:23;;;;;;;9.35;7.93;;;;;;;;;;5043557;28;20036;-64
2022/07/16 05:35:49;;;;;;;8.65;7.35;;;;;;;;;;5040899;28;20036;-65
2022/07/16 05:38:14;;;;;;;8.63;7.72;;;;;;;;;;5044627;28;20029;-66
2022/07/16 05:40:40;;;;;;;8.30;7.57;;;;;;;;;;5042363;28;20133;-65
2022/07/16 05:43:06;;;;;;;8.43;7.57;;;;;;;;;;5045932;28;20033;-65
2022/07/16 05:45:32;;;;;;;7.78;7.07;;;;;;;;;;5039259;28;20029;-65
2022/07/16 05:47:58;;;;;;;8.43;7.63;;;;;;;;;;5044859;28;20048;-66
2022/07/16 05:50:24;;;;;;;8.13;7.18;;;;;;;;;;5039550;28;20109;-66
2022/07/16 05:52:50;;;;;;;8.95;7.93;;;;;;;;;;5044396;28;20061;-66
2022/07/16 05:55:15;;;;;;;9.98;8.18;;;;;;;;;;5043004;28;20064;-66
2022/07/16 05:57:41;;;;;;;8.32;7.53;;;;;;;;;;5043976;28;20076;-65
2022/07/16 06:00:10;;;;;;;9.32;7.25;;;;;;;;;;5044039;28;20049;-64
2022/07/16 06:02:41;;;;;;;7.88;7.18;;;;;;;;;;5037190;28;20029;-66
2022/07/16 06:05:07;;;;;;;10.35;8.90;;;;;;;;;;5045350;28;20484;-71
2022/07/16 06:07:33;;;;;;;8.88;8.27;;;;;;;;;;5040344;28;20051;-68
2022/07/16 06:09:59;;;;;;;9.15;8.38;;;;;;;;;;5047812;28;20033;-69
2022/07/16 06:12:25;;;;;;;8.93;8.23;;;;;;;;;;5045049;28;20040;-68
2022/07/16 06:14:50;;;;;;;9.40;8.60;;;;;;;;;;5045340;28;20040;-68
2022/07/16 06:17:16;;;;;;;10.38;8.98;;;;;;;;;;5046977;28;20052;-68
2022/07/16 06:19:43;;;;;;;9.77;8.65;;;;;;;;;;5044757;28;20067;-67
2022/07/16 06:22:10;;;;;;;8.77;7.88;;;;;;;;;;5046502;28;20037;-68
2022/07/16 06:24:36;;;;;;;9.18;8.25;;;;;;;;;;5047425;28;20028;-68
2022/07/16 06:27:02;;;;;;;8.82;8.00;;;;;;;;;;5047618;28;20095;-68
2022/07/16 06:29:29;;;;;;;8.77;7.97;;;;;;;;;;5045515;28;20037;-68
2022/07/16 06:31:55;;;;;;;10.43;8.10;;;;;;;;;;5048415;28;20389;-69
2022/07/16 06:34:21;;;;;;;11.15;7.80;;;;;;;;;;5045933;28;20523;-68
2022/07/16 06:36:46;;;;;;;9.23;8.18;;;;;;;;;;5045488;28;20082;-68
2022/07/16 06:39:12;;;;;;;8.88;7.28;;;;;;;;;;5047138;28;20036;-68
2022/07/16 06:41:39;;;;;;;7.78;7.13;;;;;;;;;;5044783;28;20184;-68
2022/07/16 06:44:06;;;;;;;8.75;7.80;;;;;;;;;;5045690;28;20045;-68
2022/07/16 06:46:32;;;;;;;8.25;7.43;;;;;;;;;;5048383;28;20040;-67
2022/07/16 06:48:58;;;;;;;7.68;6.97;;;;;;;;;;5044730;28;20028;-67
2022/07/16 06:51:25;;;;;;;8.57;7.75;;;;;;;;;;5049190;28;20087;-68
2022/07/16 06:53:50;;;;;;;7.97;7.20;;;;;;;;;;5048747;28;20508;-67
2022/07/16 06:56:16;;;;;;;10.25;7.68;;;;;;;;;;5048960;28;20029;-68
2022/07/16 06:58:42;;;;;;;10.25;7.80;;;;;;;;;;5046958;28;20059;-70
2022/07/16 07:01:08;;;;;;;9.88;7.70;;;;;;;;;;5048895;28;20132;-68
2022/07/16 07:03:34;;;;;;;8.18;7.57;;;;;;;;;;5047881;28;20453;-67
2022/07/16 07:05:59;;;;;;;8.43;7.53;;;;;;;;;;5047890;28;20132;-66
2022/07/16 07:08:25;;;;;;;8.60;7.78;;;;;;;;;;5045136;28;20455;-67
2022/07/16 07:10:51;;;;;;;8.43;7.72;;;;;;;;;;5049975;28;20505;-67
2022/07/16 07:13:16;;;;;;;8.50;7.80;;;;;;;;;;5040613;28;20041;-66
2022/07/16 07:15:42;;;;;;;11.65;7.85;;;;;;;;;;5048376;28;20033;-66
2022/07/16 07:18:08;;;;;;;8.07;7.38;;;;;;;;;;5049283;28;20060;-67
2022/07/16 07:20:34;;;;;;;9.50;7.50;;;;;;;;;;5043133;28;20144;-69
2022/07/16 07:22:59;;;;;;;9.98;7.32;;;;;;;;;;5046630;28;20029;-70
2022/07/16 07:25:26;;;;;;;8.13;6.72;;;;;;;;;;5047777;28;20116;-67
2022/07/16 07:27:52;;;;;;;8.77;6.82;;;;;;;;;;5046106;28;20033;-68
2022/07/16 07:30:17;;;;;;;8.23;7.00;;;;;;;;;;5045668;28;20123;-68
2022/07/16 07:32:43;;;;;;;8.15;7.22;;;;;;;;;;5042184;28;20112;-68
2022/07/16 07:35:09;;;;;;;7.57;6.95;;;;;;;;;;5043726;28;20088;-70
2022/07/16 07:37:35;;;;;;;7.15;6.45;;;;;;;;;;5040232;28;20043;-70
2022/07/16 07:40:03;;;;;;;7.25;6.65;;;;;;;;;;5042615;28;20033;-69
2022/07/16 07:42:29;;;;;;;;;;;;;;;;;;5047455;28;20041;-69
2022/07/16 07:44:55;;;;;;;7.45;6.30;;;;;;;;;;5046550;28;20643;-70
2022/07/16 07:47:20;;;;;;;8.20;6.90;;;;;;;;;;5053389;28;20033;-70
2022/07/16 07:49:46;;;;;;;6.85;6.15;;;;;;;;;;5046913;28;20037;-69
2022/07/16 07:52:13;;;;;;;6.97;6.38;;;;;;;;;;5046514;28;20190;-69
2022/07/16 07:54:39;;;;;;;10.40;6.50;;;;;;;;;;5043811;28;20029;-69
2022/07/16 07:57:05;;;;;;;7.15;6.55;;;;;;;;;;5049217;28;20041;-69
2022/07/16 07:59:31;;;;;;;8.00;6.22;;;;;;;;;;5042024;28;20713;-69
2022/07/16 08:01:56;;;;;;;8.45;7.05;;;;;;;;;;5041739;28;20119;-69
2022/07/16 08:04:22;;;;;;;7.28;6.53;;;;;;;;;;5047348;28;20040;-69
2022/07/16 08:06:47;;;;;;;8.00;6.28;;;;;;;;;;5044961;28;20107;-69
2022/07/16 08:09:13;;;;;;;7.10;6.50;;;;;;;;;;5046024;28;20049;-69
2022/07/16 08:11:39;;;;;;;6.65;5.80;;;;;;;;;;5043764;28;20037;-70
2022/07/16 08:14:04;;;;;;;6.72;5.45;;;;;;;;;;5047976;28;20539;-69
2022/07/16 08:16:30;;;;;;;7.28;5.80;;;;;;;;;;5045330;28;20059;-70
2022/07/16 08:18:55;;;;;;;8.18;5.72;;;;;;;;;;5048315;28;20048;-70
2022/07/16 08:21:21;;;;;;;6.75;6.05;;;;;;;;;;5042321;28;20052;-70
2022/07/16 08:26:31;;;;;;;7.38;6.35;;;;;;;;;;5045000;28;20041;-68
2022/07/16 08:28:56;;;;;;;8.52;6.32;;;;;;;;;;5047212;28;20116;-70
2022/07/16 08:31:22;;;;;;;7.82;6.57;;;;;;;;;;5040479;28;20064;-70
2022/07/16 08:33:48;;;;;;;7.20;6.22;;;;;;;;;;5047549;28;20037;-70
2022/07/16 08:36:13;;;;;;;7.78;6.10;;;;;;;;;;5039460;28;20484;-70
2022/07/16 08:38:39;;;;;;;6.55;6.05;;;;;;;;;;5046875;28;20036;-70
2022/07/16 08:41:05;;;;;;;7.10;5.78;;;;;;;;;;5046104;28;20597;-70
2022/07/16 08:43:32;;;;;;;5.70;5.30;;;;;;;;;;5028599;28;20082;-70
2022/07/16 08:45:57;;;;;;;6.45;5.72;;;;;;;;;;5040111;28;20041;-69
2022/07/16 08:48:26;;;;;;;7.53;5.90;;;;;;;;;;5045210;28;20060;-69
2022/07/16 08:50:53;;;;;;;8.13;5.88;;;;;;;;;;5045374;28;20485;-70
2022/07/16 08:53:22;;;;;;;6.90;6.20;;;;;;;;;;5046155;28;20048;-69
2022/07/16 08:55:52;;;;;;;7.07;6.03;;;;;;;;;;5045862;28;20032;-70
2022/07/16 08:58:18;;;;;;;7.35;6.03;;;;;;;;;;5043797;28;20048;-70
2022/07/16 09:00:45;;;;;;;6.65;5.95;;;;;;;;;;5042426;28;20555;-69
2022/07/16 09:03:13;;;;;;;6.15;5.65;;;;;;;;;;5048749;28;20059;-68
2022/07/16 09:05:40;;;;;;;6.50;5.95;;;;;;;;;;5048693;28;20103;-71
2022/07/16 09:08:06;;;;;;;6.80;6.20;;;;;;;;;;5048998;28;20047;-68
2022/07/16 09:10:37;;;;;;;6.38;5.80;;;;;;;;;;5045840;28;20024;-69
2022/07/16 09:13:03;;;;;;;6.20;5.70;;;;;;;;;;5045250;28;20730;-70
2022/07/16 09:15:35;;;;;;;7.65;5.97;;;;;;;;;;5048199;28;20120;-68
2022/07/16 09:18:10;;;;;;;7.22;5.63;;;;;;;;;;5047258;28;20407;-68
2022/07/16 09:20:38;;;;;;;6.47;5.88;;;;;;;;;;5042161;28;20029;-67
2022/07/16 09:23:04;;;;;;;6.53;5.65;;;;;;;;;;5044977;28;20063;-70
2022/07/16 09:25:30;;;;;;;5.80;5.30;;;;;;;;;;5045416;28;20064;-70
2022/07/16 09:28:00;;;;;;;9.50;5.60;;;;;;;;;;5046894;28;20037;-70
2022/07/16 09:30:27;;;;;;;6.38;5.80;;;;;;;;;;5045578;28;20062;-68
2022/07/16 09:32:53;;;;;;;7.45;5.80;;;;;;;;;;5044206;28;20029;-68
2022/07/16 09:35:20;;;;;;;6.20;5.70;;;;;;;;;;5047103;28;20043;-68
2022/07/16 09:37:52;;;;;;;7.03;6.05;;;;;;;;;;5047599;28;20033;-68
2022/07/16 09:40:40;;;;;;;6.40;5.80;;;;;;;;;;5039811;28;20127;-70
2022/07/16 09:43:12;;;;;;;7.22;5.90;;;;;;;;;;5043312;28;20045;-70
2022/07/16 09:45:39;;;;;;;6.45;5.80;;;;;;;;;;5039818;28;20037;-70
2022/07/16 09:48:31;;;;;;;6.65;6.07;;;;;;;;;;5041988;28;20069;-70
2022/07/16 09:51:21;;;;;;;6.70;6.10;;;;;;;;;;5044962;28;20025;-70
2022/07/16 09:53:51;;;;;;;7.53;6.07;;;;;;;;;;5039835;28;20048;-70
2022/07/16 09:56:19;;;;;;;6.97;6.30;;;;;;;;;;5045377;28;20082;-69
2022/07/16 09:58:51;;;;;;;6.30;5.70;;;;;;;;;;5044623;28;20029;-70
2022/07/16 10:01:17;;;;;;;7.07;5.80;;;;;;;;;;5044327;28;20025;-70
2022/07/16 10:03:44;;;;;;;10.50;5.63;;;;;;;;;;5044844;28;20728;-70
2022/07/16 10:06:10;;;;;;;5.88;5.47;;;;;;;;;;5047318;28;20512;-69
2022/07/16 10:08:38;;;;;;;6.60;5.65;;;;;;;;;;5040595;28;20061;-70
2022/07/16 10:11:04;;;;;;;8.85;5.30;;;;;;;;;;5044544;28;20033;-70
2022/07/16 10:13:31;;;;;;;5.72;5.32;;;;;;;;;;5047549;28;20033;-71
2022/07/16 10:15:57;;;;;;;5.63;5.13;;;;;;;;;;5045063;28;20065;-70
2022/07/16 10:18:46;;;;;;;6.28;5.78;;;;;;;;;;5046623;28;20094;-69
2022/07/16 10:21:16;;;;;;;7.15;6.15;;;;;;;;;;5047308;28;20032;-69
2022/07/16 10:23:44;;;;;;;6.82;6.22;;;;;;;;;;5044495;28;20040;-70
2022/07/16 10:26:15;;;;;;;6.82;6.10;;;;;;;;;;5042589;28;20503;-70
2022/07/16 10:28:52;;;;;;;6.40;5.88;;;;;;;;;;5046397;28;20167;-70
2022/07/16 10:32:30;;;;;;;6.70;6.10;;;;;;;;;;5045467;28;20040;-69
2022/07/16 10:34:38;;;;;;;6.95;6.18;;;;;;;;;;5041990;28;20049;-69
2022/07/16 10:37:23;;;;;;;5.97;5.47;;;;;;;;;;5045303;28;20033;-70
2022/07/16 10:40:06;;;;;;;6.85;6.00;;;;;;;;;;5040899;28;20040;-70
2022/07/16 10:42:32;;;;;;;8.40;6.15;;;;;;;;;;5047553;28;20488;-70
2022/07/16 10:44:58;;;;;;;6.38;5.88;;;;;;;;;;5045181;28;20045;-69
2022/07/16 10:47:48;;;;;;;9.93;5.80;;;;;;;;;;5046331;28;20029;-70
2022/07/16 10:50:17;;;;;;;6.30;5.70;;;;;;;;;;5047561;28;20033;-70
2022/07/16 10:52:47;;;;;;;6.90;6.30;;;;;;;;;;5046786;28;20097;-70
2022/07/16 10:55:29;;;;;;;6.22;5.63;;;;;;;;;;5046265;28;20048;-70
2022/07/16 10:57:55;;;;;;;6.55;6.00;;;;;;;;;;5048831;28;20113;-70
2022/07/16 11:00:20;;;;;;;6.63;6.03;;;;;;;;;;5033373;28;20573;-70
2022/07/16 11:02:47;;;;;;;6.70;6.10;;;;;;;;;;5050081;28;20048;-70
2022/07/16 11:05:13;;;;;;;6.22;5.78;;;;;;;;;;5050472;28;20028;-70
2022/07/16 11:07:38;;;;;;;6.38;5.88;;;;;;;;;;5050720;28;20116;-70
2022/07/16 11:10:05;;;;;;;6.70;6.00;;;;;;;;;;5050997;28;20118;-69
2022/07/16 11:12:31;;;;;;;6.50;6.00;;;;;;;;;;5050250;28;20048;-70
2022/07/16 11:15:00;;;;;;;8.75;6.05;;;;;;;;;;5049764;28;20036;-70
2022/07/16 11:17:29;;;;;;;5.97;5.57;;;;;;;;;;5046424;28;20056;-67
2022/07/16 11:20:00;;;;;;;6.10;5.68;;;;;;;;;;5049139;28;20112;-70
2022/07/16 11:22:29;;;;;;;6.68;5.85;;;;;;;;;;5047703;28;20121;-69
2022/07/16 11:24:58;;;;;;;7.00;5.35;;;;;;;;;;5048101;28;20056;-70
2022/07/16 11:27:35;;;;;;;7.32;5.57;;;;;;;;;;5050967;28;20029;-70
2022/07/16 11:30:04;;;;;;;6.15;5.38;;;;;;;;;;5051259;28;20033;-70
2022/07/16 11:32:30;;;;;;;8.27;5.47;;;;;;;;;;5050245;28;20039;-68
2022/07/16 11:34:55;;;;;;;6.00;5.50;;;;;;;;;;5051021;28;20123;-68
2022/07/16 11:37:21;;;;;;;6.20;5.60;;;;;;;;;;5051306;28;20040;-68
2022/07/16 11:39:48;;;;;;;5.97;5.47;;;;;;;;;;5051397;28;20029;-68
2022/07/16 11:42:18;;;;;;;6.10;5.60;;;;;;;;;;5048569;28;20033;-70
2022/07/16 11:44:45;;;;;;;6.07;5.57;;;;;;;;;;5050975;28;20686;-68
2022/07/16 11:47:11;;;;;;;6.70;5.90;;;;;;;;;;5048318;28;20039;-70
2022/07/16 11:49:44;;;;;;;6.30;5.90;;;;;;;;;;5051832;28;20033;-70
2022/07/16 11:52:16;;;;;;;6.22;5.63;;;;;;;;;;5051245;28;20168;-70
2022/07/16 11:54:42;;;;;;;6.13;5.72;;;;;;;;;;5050029;28;20472;-70
2022/07/16 11:57:11;;;;;;;6.53;5.70;;;;;;;;;;5051213;28;20037;-70
2022/07/16 11:59:55;;;;;;;6.72;5.38;;;;;;;;;;5050726;28;20033;-70
2022/07/16 12:02:27;;;;;;;6.28;5.78;;;;;;;;;;5049867;28;20528;-68
2022/07/16 12:04:56;;;;;;;5.32;5.00;;;;;;;;;;5050030;28;20642;-70
2022/07/16 12:07:25;;;;;;;5.95;5.45;;;;;;;;;;5046447;28;20068;-70
2022/07/16 12:09:52;;;;;;;;;;;;;;;;;;5050995;28;20037;-68
2022/07/16 12:12:36;;;;;;;5.50;5.10;;;;;;;;;;5050874;28;20009;-68
2022/07/16 12:15:07;;;;;;;5.72;5.18;;;;;;;;;;5050808;28;20065;-70
2022/07/16 12:17:39;;;;;;;5.88;5.38;;;;;;;;;;5049546;28;20029;-68
2022/07/16 12:20:09;;;;;;;5.78;5.30;;;;;;;;;;5048664;28;20044;-68
2022/07/16 12:23:02;;;;;;;5.82;5.32;;;;;;;;;;5051587;28;20055;-70
2022/07/16 12:25:28;;;;;;;6.30;5.00;;;;;;;;;;5048466;28;20480;-69
2022/07/16 12:28:11;;;;;;;6.07;5.55;;;;;;;;;;5047215;28;20031;-70
2022/07/16 12:30:42;;;;;;;5.68;5.13;;;;;;;;;;5051314;28;20041;-70
2022/07/16 12:33:22;;;;;;;5.57;5.15;;;;;;;;;;5051052;28;20682;-71
2022/07/16 12:35:57;;;;;;;5.65;5.25;;;;;;;;;;5045467;28;20025;-65
2022/07/16 12:38:44;;;;;;;5.60;5.03;;;;;;;;;;5051168;28;20055;-68
2022/07/16 12:41:13;;;;;;;6.00;5.00;;;;;;;;;;5046435;28;20067;-68
2022/07/16 12:43:41;;;;;;;5.30;5.00;;;;;;;;;;5046615;28;20036;-70
2022/07/16 12:46:07;;;;;;;5.93;5.43;;;;;;;;;;5049938;28;20037;-67
2022/07/16 12:48:57;;;;;;;6.20;5.07;;;;;;;;;;5044273;28;20041;-69
2022/07/16 12:51:27;;;;;;;5.78;5.20;;;;;;;;;;5049607;28;20029;-70
2022/07/16 12:53:54;;;;;;;5.95;5.10;;;;;;;;;;5049483;28;20060;-70
2022/07/16 12:59:05;;;;;;;5.57;5.07;;;;;;;;;;5049810;28;20033;-69
2022/07/16 13:01:31;;;;;;;5.80;5.40;;;;;;;;;;5049396;28;20056;-67
2022/07/16 13:03:57;;;;;;;5.93;5.43;;;;;;;;;;5049993;28;20068;-70
2022/07/16 13:06:23;;;;;;;5.95;5.55;;;;;;;;;;5049837;28;20033;-70
2022/07/16 13:08:49;;;;;;;5.97;5.47;;;;;;;;;;5049299;28;20185;-68
2022/07/16 13:11:17;;;;;;;6.03;5.63;;;;;;;;;;5046873;28;20060;-69
2022/07/16 13:13:45;;;;;;;5.60;5.20;;;;;;;;;;5050643;28;20045;-69
2022/07/16 13:16:11;;;;;;;5.82;5.43;;;;;;;;;;5048884;28;20029;-69
2022/07/16 13:18:37;;;;;;;5.70;5.30;;;;;;;;;;5042314;28;20044;-69
2022/07/16 13:21:04;;;;;;;5.80;5.35;;;;;;;;;;5047765;28;20451;-70
2022/07/16 13:23:31;;;;;;;6.28;5.88;;;;;;;;;;5049832;28;20044;-69
2022/07/16 13:25:57;;;;;;;6.20;5.80;;;;;;;;;;5044466;28;20073;-68
2022/07/16 13:28:23;;;;;;;6.43;5.80;;;;;;;;;;5049282;28;20076;-68
2022/07/16 13:30:50;;;;;;;5.82;5.43;;;;;;;;;;5046558;28;20045;-68
2022/07/16 13:33:16;;;;;;;5.88;5.40;;;;;;;;;;5045448;28;20029;-69
2022/07/16 13:35:42;;;;;;;6.22;5.72;;;;;;;;;;5049478;28;20029;-69
2022/07/16 13:38:08;;;;;;;6.10;5.60;;;;;;;;;;5047878;28;20048;-68
2022/07/16 13:40:34;;;;;;;6.18;5.60;;;;;;;;;;5048372;28;20103;-69
2022/07/16 13:43:01;;;;;;;5.72;5.32;;;;;;;;;;5047244;28;20047;-69
2022/07/16 13:45:27;;;;;;;7.05;5.60;;;;;;;;;;5048514;28;20039;-68
2022/07/16 13:47:53;;;;;;;5.95;5.43;;;;;;;;;;5047385;28;20038;-68
2022/07/16 13:50:19;;;;;;;7.38;5.63;;;;;;;;;;5047121;28;20468;-69
2022/07/16 13:52:45;;;;;;;6.15;5.30;;;;;;;;;;5045653;28;20935;-69
2022/07/16 13:55:11;;;;;;;6.30;5.70;;;;;;;;;;5042581;28;20049;-68
2022/07/16 14:00:25;;;;;;;5.97;5.47;;;;;;;;;;5042569;28;20095;-68
2022/07/16 14:02:51;;;;;;;6.50;5.90;;;;;;;;;;5040461;28;20076;-68
2022/07/16 14:05:17;;;;;;;6.22;5.50;;;;;;;;;;5047945;28;20373;-68
2022/07/16 14:07:43;;;;;;;6.18;5.72;;;;;;;;;;5043666;28;20127;-67
2022/07/16 14:10:11;;;;;;;6.55;5.90;;;;;;;;;;5045231;28;20033;-68
2022/07/16 14:12:36;;;;;;;5.77;5.37;;;;;;;;;;5047924;28;20091;-68
2022/07/16 14:15:02;;;;;;;5.80;5.30;;;;;;;;;;5045356;28;20516;-70
2022/07/16 14:17:28;;;;;;;6.38;5.78;;;;;;;;;;5039694;28;20404;-70
2022/07/16 14:19:53;;;;;;;6.25;5.65;;;;;;;;;;5047739;28;20030;-68
2022/07/16 14:22:19;;;;;;;5.72;5.32;;;;;;;;;;5048129;28;20112;-67
2022/07/16 14:24:45;;;;;;;6.10;5.60;;;;;;;;;;5043635;28;20357;-69
2022/07/16 14:27:11;;;;;;;9.05;5.78;;;;;;;;;;5043798;28;20145;-67
2022/07/16 14:29:36;;;;;;;5.85;5.50;;;;;;;;;;5047336;28;20029;-67
2022/07/16 14:32:02;;;;;;;5.70;5.30;;;;;;;;;;5046380;28;20036;-70
2022/07/16 14:34:29;;;;;;;5.90;5.43;;;;;;;;;;5042571;28;20036;-70
2022/07/16 14:36:54;;;;;;;5.82;5.43;;;;;;;;;;5051239;28;20025;-69
2022/07/16 14:39:20;;;;;;;6.13;5.55;;;;;;;;;;5046803;28;20036;-69
2022/07/16 14:41:46;;;;;;;6.13;5.60;;;;;;;;;;5049048;28;20044;-70
2022/07/16 14:44:11;;;;;;;6.10;5.70;;;;;;;;;;5049446;28;20029;-67
2022/07/16 14:46:37;;;;;;;7.05;5.85;;;;;;;;;;5050997;28;20368;-70
2022/07/16 14:49:03;;;;;;;5.85;5.45;;;;;;;;;;5044854;28;20047;-70
2022/07/16 14:51:28;;;;;;;5.93;5.53;;;;;;;;;;5049442;28;20041;-69
2022/07/16 14:53:54;;;;;;;6.22;5.72;;;;;;;;;;5046027;28;20428;-67